Korce, Albania
Current Conditions -  °F | °C
As of 4:00 PM on Friday 24 Oct 2014 (Local Time) from LWOH Reporting Station
Light Rain Light Rain  
Wind Chill: 37°   Ceiling: 4000
Heat Index: 43°   Visibility: 6mi
Dew Point: 36°   Wind: 9mph
Humidity: 76%   Direction: 350°N
Pressure: 29.77"   Gusts: NA
Location:  40.62°N, 20.78°E
Report Text: LWOH 241400Z 35008KT 9999 -RA FEW023 OVC040 06/02 Q1008
Loading
Personal Weather Stations






























Interactive Weather Map
Tropical Storm Tracking
New forecast layout! Learn more

10-Day Weather Forecast

Advertisements
Track Severe Weather on mobile